sensor_id;sensor_type;location;lat;lon;timestamp;pressure;altitude;pressure_sealevel;temperature;humidity
692;BME280;70475;50.084;8.576;2023-07-09T00:01:13;100897.59;;;21.29;61.63
692;BME280;70475;50.084;8.576;2023-07-09T00:03:41;100907.03;;;21.10;62.99
692;BME280;70475;50.084;8.576;2023-07-09T00:06:09;100914.31;;;20.93;63.67
692;BME280;70475;50.084;8.576;2023-07-09T00:08:40;100914.06;;;20.78;64.35
692;BME280;70475;50.084;8.576;2023-07-09T00:11:11;100923.72;;;20.74;64.51
692;BME280;70475;50.084;8.576;2023-07-09T00:13:38;100913.94;;;20.73;63.88
692;BME280;70475;50.084;8.576;2023-07-09T00:16:11;100920.69;;;20.70;64.27
692;BME280;70475;50.084;8.576;2023-07-09T00:18:40;100918.38;;;20.79;63.85
692;BME280;70475;50.084;8.576;2023-07-09T00:21:08;100916.16;;;20.76;64.19
692;BME280;70475;50.084;8.576;2023-07-09T00:23:36;100923.63;;;20.69;64.91
692;BME280;70475;50.084;8.576;2023-07-09T00:26:08;100924.59;;;20.63;64.99
692;BME280;70475;50.084;8.576;2023-07-09T00:28:37;100921.78;;;20.58;65.05
692;BME280;70475;50.084;8.576;2023-07-09T00:31:05;100929.19;;;20.62;64.36
692;BME280;70475;50.084;8.576;2023-07-09T00:33:34;100938.00;;;20.58;64.78
692;BME280;70475;50.084;8.576;2023-07-09T00:36:11;100939.13;;;20.73;63.69
692;BME280;70475;50.084;8.576;2023-07-09T00:38:41;100939.25;;;20.50;65.53
692;BME280;70475;50.084;8.576;2023-07-09T00:41:17;100934.84;;;20.09;67.59
692;BME280;70475;50.084;8.576;2023-07-09T00:43:48;100932.09;;;19.81;68.38
692;BME280;70475;50.084;8.576;2023-07-09T00:49:28;100929.97;;;19.60;69.47
692;BME280;70475;50.084;8.576;2023-07-09T00:51:59;100923.16;;;19.69;68.54
692;BME280;70475;50.084;8.576;2023-07-09T00:54:30;100926.69;;;19.70;68.60
692;BME280;70475;50.084;8.576;2023-07-09T00:57:06;100923.63;;;19.66;68.92
692;BME280;70475;50.084;8.576;2023-07-09T00:59:36;100928.94;;;19.61;69.06
692;BME280;70475;50.084;8.576;2023-07-09T01:02:05;100929.97;;;19.60;68.87
692;BME280;70475;50.084;8.576;2023-07-09T01:04:34;100926.72;;;19.58;69.21
692;BME280;70475;50.084;8.576;2023-07-09T01:07:02;100931.50;;;19.68;68.50
692;BME280;70475;50.084;8.576;2023-07-09T01:09:30;100928.09;;;19.72;67.80
692;BME280;70475;50.084;8.576;2023-07-09T01:12:03;100927.19;;;19.55;69.79
692;BME280;70475;50.084;8.576;2023-07-09T01:14:33;100932.34;;;19.45;70.18
692;BME280;70475;50.084;8.576;2023-07-09T01:17:06;100935.38;;;19.49;70.23
692;BME280;70475;50.084;8.576;2023-07-09T01:19:38;100928.94;;;19.50;69.53
692;BME280;70475;50.084;8.576;2023-07-09T01:22:12;100927.50;;;19.47;69.86
692;BME280;70475;50.084;8.576;2023-07-09T01:24:53;100924.81;;;19.36;70.48
692;BME280;70475;50.084;8.576;2023-07-09T01:27:23;100935.75;;;19.41;69.99
692;BME280;70475;50.084;8.576;2023-07-09T01:29:53;100937.97;;;19.32;70.58
692;BME280;70475;50.084;8.576;2023-07-09T01:32:21;100935.47;;;19.31;70.41
692;BME280;70475;50.084;8.576;2023-07-09T01:34:51;100945.50;;;19.30;70.45
692;BME280;70475;50.084;8.576;2023-07-09T01:37:25;100943.53;;;19.19;71.06
692;BME280;70475;50.084;8.576;2023-07-09T01:39:54;100941.19;;;19.11;71.47
692;BME280;70475;50.084;8.576;2023-07-09T01:42:24;100932.50;;;19.09;71.88
692;BME280;70475;50.084;8.576;2023-07-09T01:44:53;100934.69;;;18.89;72.83
692;BME280;70475;50.084;8.576;2023-07-09T01:47:22;100939.81;;;18.79;73.29
692;BME280;70475;50.084;8.576;2023-07-09T01:49:52;100940.25;;;18.76;73.66
692;BME280;70475;50.084;8.576;2023-07-09T01:52:28;100936.94;;;18.92;72.50
692;BME280;70475;50.084;8.576;2023-07-09T01:54:57;100936.56;;;18.89;72.92
692;BME280;70475;50.084;8.576;2023-07-09T01:57:26;100927.75;;;18.82;72.98
692;BME280;70475;50.084;8.576;2023-07-09T02:00:00;100933.84;;;18.77;73.01
692;BME280;70475;50.084;8.576;2023-07-09T02:02:30;100931.94;;;18.78;73.12
692;BME280;70475;50.084;8.576;2023-07-09T02:04:58;100940.66;;;18.91;71.87
692;BME280;70475;50.084;8.576;2023-07-09T02:07:28;100938.44;;;19.00;71.20
692;BME280;70475;50.084;8.576;2023-07-09T02:09:57;100939.44;;;19.05;70.68
692;BME280;70475;50.084;8.576;2023-07-09T02:12:24;100939.53;;;19.10;70.35
692;BME280;70475;50.084;8.576;2023-07-09T02:14:52;100946.22;;;19.08;71.67
692;BME280;70475;50.084;8.576;2023-07-09T02:17:20;100947.16;;;19.13;71.35
692;BME280;70475;50.084;8.576;2023-07-09T02:19:47;100947.78;;;19.15;70.70
692;BME280;70475;50.084;8.576;2023-07-09T02:22:15;100944.75;;;19.23;70.03
692;BME280;70475;50.084;8.576;2023-07-09T02:24:44;100948.94;;;19.19;69.85
692;BME280;70475;50.084;8.576;2023-07-09T02:27:14;100953.41;;;19.14;70.17
692;BME280;70475;50.084;8.576;2023-07-09T02:29:42;100951.13;;;18.88;72.84
692;BME280;70475;50.084;8.576;2023-07-09T02:32:15;100952.31;;;18.62;73.93
692;BME280;70475;50.084;8.576;2023-07-09T02:34:44;100959.19;;;18.47;74.53
692;BME280;70475;50.084;8.576;2023-07-09T02:37:16;100968.41;;;18.39;75.30
692;BME280;70475;50.084;8.576;2023-07-09T02:39:46;100964.78;;;18.27;75.87
692;BME280;70475;50.084;8.576;2023-07-09T02:42:16;100954.50;;;18.17;76.62
692;BME280;70475;50.084;8.576;2023-07-09T02:44:44;100957.19;;;18.17;76.59
692;BME280;70475;50.084;8.576;2023-07-09T02:47:13;100962.44;;;18.30;75.46
692;BME280;70475;50.084;8.576;2023-07-09T02:49:41;100959.56;;;18.14;76.82
692;BME280;70475;50.084;8.576;2023-07-09T02:52:08;100971.59;;;18.29;75.93
692;BME280;70475;50.084;8.576;2023-07-09T02:54:36;100976.31;;;18.34;75.38
692;BME280;70475;50.084;8.576;2023-07-09T02:57:05;100963.03;;;18.32;75.47
692;BME280;70475;50.084;8.576;2023-07-09T02:59:33;100965.28;;;18.17;75.87
692;BME280;70475;50.084;8.576;2023-07-09T03:02:02;100968.09;;;18.11;76.75
692;BME280;70475;50.084;8.576;2023-07-09T03:04:30;100979.59;;;18.00;77.46
692;BME280;70475;50.084;8.576;2023-07-09T03:06:58;100983.94;;;18.01;77.19
692;BME280;70475;50.084;8.576;2023-07-09T03:09:27;100984.16;;;17.99;77.35
692;BME280;70475;50.084;8.576;2023-07-09T03:11:55;100983.34;;;17.99;76.91
692;BME280;70475;50.084;8.576;2023-07-09T03:14:24;100979.75;;;18.05;76.54
692;BME280;70475;50.084;8.576;2023-07-09T03:16:52;100986.88;;;18.17;75.42
692;BME280;70475;50.084;8.576;2023-07-09T03:19:20;100989.50;;;18.24;74.90
692;BME280;70475;50.084;8.576;2023-07-09T03:21:47;100987.75;;;18.11;77.09
692;BME280;70475;50.084;8.576;2023-07-09T03:24:15;100992.16;;;17.88;78.67
692;BME280;70475;50.084;8.576;2023-07-09T03:26:46;100983.59;;;17.73;79.33
692;BME280;70475;50.084;8.576;2023-07-09T03:29:14;100999.44;;;17.63;79.76
692;BME280;70475;50.084;8.576;2023-07-09T03:31:43;100999.31;;;17.58;79.91
692;BME280;70475;50.084;8.576;2023-07-09T03:34:10;100994.94;;;17.57;80.14
692;BME280;70475;50.084;8.576;2023-07-09T03:36:38;100996.94;;;17.68;79.51
692;BME280;70475;50.084;8.576;2023-07-09T03:39:06;100998.13;;;17.72;79.44
692;BME280;70475;50.084;8.576;2023-07-09T03:41:34;100996.78;;;17.81;78.47
692;BME280;70475;50.084;8.576;2023-07-09T03:44:01;101001.44;;;17.74;79.14
692;BME280;70475;50.084;8.576;2023-07-09T03:46:29;101000.28;;;17.63;79.71
692;BME280;70475;50.084;8.576;2023-07-09T03:48:59;101001.13;;;17.64;79.96
692;BME280;70475;50.084;8.576;2023-07-09T03:51:27;100992.16;;;17.70;79.55
692;BME280;70475;50.084;8.576;2023-07-09T03:53:55;101011.00;;;17.70;79.92
692;BME280;70475;50.084;8.576;2023-07-09T03:56:22;101003.47;;;17.78;79.51
692;BME280;70475;50.084;8.576;2023-07-09T03:58:50;101013.50;;;17.89;79.02
692;BME280;70475;50.084;8.576;2023-07-09T04:01:17;101017.25;;;17.88;79.05
692;BME280;70475;50.084;8.576;2023-07-09T04:03:45;101018.13;;;17.82;79.61
692;BME280;70475;50.084;8.576;2023-07-09T04:06:14;101016.84;;;17.85;79.27
692;BME280;70475;50.084;8.576;2023-07-09T04:08:42;101023.06;;;17.85;79.13
692;BME280;70475;50.084;8.576;2023-07-09T04:11:09;101024.66;;;17.93;78.67
692;BME280;70475;50.084;8.576;2023-07-09T04:13:37;101020.25;;;17.98;78.17
692;BME280;70475;50.084;8.576;2023-07-09T04:16:05;101022.50;;;18.01;78.15
692;BME280;70475;50.084;8.576;2023-07-09T04:18:33;101022.38;;;17.96;78.14
692;BME280;70475;50.084;8.576;2023-07-09T04:21:02;101029.75;;;18.01;78.11
692;BME280;70475;50.084;8.576;2023-07-09T04:23:31;101027.66;;;18.03;78.01
692;BME280;70475;50.084;8.576;2023-07-09T04:25:58;101028.41;;;18.10;77.55
692;BME280;70475;50.084;8.576;2023-07-09T04:28:30;101026.38;;;18.05;78.38
692;BME280;70475;50.084;8.576;2023-07-09T04:30:58;101026.34;;;18.12;77.95
692;BME280;70475;50.084;8.576;2023-07-09T04:33:25;101026.41;;;18.23;77.08
692;BME280;70475;50.084;8.576;2023-07-09T04:35:55;101020.50;;;18.33;76.44
692;BME280;70475;50.084;8.576;2023-07-09T04:38:24;101018.81;;;18.38;76.33
692;BME280;70475;50.084;8.576;2023-07-09T04:40:52;101025.91;;;18.33;78.25
692;BME280;70475;50.084;8.576;2023-07-09T04:43:20;101031.75;;;18.30;79.40
692;BME280;70475;50.084;8.576;2023-07-09T04:45:48;101025.03;;;18.39;78.82
692;BME280;70475;50.084;8.576;2023-07-09T04:48:15;101019.41;;;18.41;79.39
692;BME280;70475;50.084;8.576;2023-07-09T04:50:43;101025.31;;;18.49;79.00
692;BME280;70475;50.084;8.576;2023-07-09T04:53:11;101017.59;;;18.53;79.54
692;BME280;70475;50.084;8.576;2023-07-09T04:55:38;101020.81;;;18.61;79.01
692;BME280;70475;50.084;8.576;2023-07-09T04:58:08;101024.09;;;18.63;79.09
692;BME280;70475;50.084;8.576;2023-07-09T05:00:35;101012.41;;;18.69;78.75
692;BME280;70475;50.084;8.576;2023-07-09T05:03:03;101009.84;;;18.74;78.68
692;BME280;70475;50.084;8.576;2023-07-09T05:05:30;101006.75;;;18.89;77.74
692;BME280;70475;50.084;8.576;2023-07-09T05:07:58;101009.84;;;19.04;76.12
692;BME280;70475;50.084;8.576;2023-07-09T05:10:25;101017.16;;;19.15;75.64
692;BME280;70475;50.084;8.576;2023-07-09T05:12:54;101009.72;;;19.28;75.52
692;BME280;70475;50.084;8.576;2023-07-09T05:15:23;101014.34;;;19.39;74.83
692;BME280;70475;50.084;8.576;2023-07-09T05:17:51;101016.22;;;19.50;74.34
692;BME280;70475;50.084;8.576;2023-07-09T05:20:19;101011.66;;;19.62;73.67
692;BME280;70475;50.084;8.576;2023-07-09T05:22:47;101012.72;;;19.73;73.59
692;BME280;70475;50.084;8.576;2023-07-09T05:25:15;101016.50;;;19.83;73.78
692;BME280;70475;50.084;8.576;2023-07-09T05:27:43;101012.94;;;19.94;73.87
692;BME280;70475;50.084;8.576;2023-07-09T05:30:11;101011.06;;;20.06;73.37
692;BME280;70475;50.084;8.576;2023-07-09T05:32:40;101007.09;;;20.20;73.46
692;BME280;70475;50.084;8.576;2023-07-09T05:35:08;101014.34;;;20.31;73.13
692;BME280;70475;50.084;8.576;2023-07-09T05:37:36;101012.22;;;20.45;72.73
692;BME280;70475;50.084;8.576;2023-07-09T05:40:05;101006.50;;;20.58;72.87
692;BME280;70475;50.084;8.576;2023-07-09T05:42:33;101012.13;;;20.68;72.44
692;BME280;70475;50.084;8.576;2023-07-09T05:45:00;101018.69;;;20.84;71.43
692;BME280;70475;50.084;8.576;2023-07-09T05:47:28;101021.47;;;21.00;71.55
692;BME280;70475;50.084;8.576;2023-07-09T05:49:57;101015.50;;;21.15;72.26
692;BME280;70475;50.084;8.576;2023-07-09T05:52:24;101016.34;;;21.32;69.19
692;BME280;70475;50.084;8.576;2023-07-09T05:54:55;101016.25;;;21.43;70.17
692;BME280;70475;50.084;8.576;2023-07-09T05:57:22;101018.63;;;21.56;69.71
692;BME280;70475;50.084;8.576;2023-07-09T05:59:50;101020.56;;;21.72;67.14
692;BME280;70475;50.084;8.576;2023-07-09T06:02:19;101020.53;;;21.89;64.58
692;BME280;70475;50.084;8.576;2023-07-09T06:04:47;101030.97;;;21.97;66.93
692;BME280;70475;50.084;8.576;2023-07-09T06:07:17;101029.00;;;22.09;66.53
692;BME280;70475;50.084;8.576;2023-07-09T06:09:45;101015.16;;;22.27;62.29
692;BME280;70475;50.084;8.576;2023-07-09T06:12:14;101024.03;;;22.44;61.61
692;BME280;70475;50.084;8.576;2023-07-09T06:14:41;101028.06;;;22.58;60.65
692;BME280;70475;50.084;8.576;2023-07-09T06:17:09;101023.56;;;22.69;60.35
692;BME280;70475;50.084;8.576;2023-07-09T06:19:37;101030.75;;;22.80;60.19
692;BME280;70475;50.084;8.576;2023-07-09T06:22:05;101031.72;;;22.95;59.02
692;BME280;70475;50.084;8.576;2023-07-09T06:24:34;101028.84;;;23.02;58.41
692;BME280;70475;50.084;8.576;2023-07-09T06:27:02;101032.41;;;23.07;58.62
692;BME280;70475;50.084;8.576;2023-07-09T06:29:29;101027.59;;;23.14;58.35
692;BME280;70475;50.084;8.576;2023-07-09T06:31:57;101025.56;;;23.26;57.69
692;BME280;70475;50.084;8.576;2023-07-09T06:34:24;101039.00;;;23.38;57.34
692;BME280;70475;50.084;8.576;2023-07-09T06:36:52;101036.66;;;23.46;58.21
692;BME280;70475;50.084;8.576;2023-07-09T06:39:20;101036.72;;;23.56;57.39
692;BME280;70475;50.084;8.576;2023-07-09T06:41:49;101032.47;;;23.70;56.53
692;BME280;70475;50.084;8.576;2023-07-09T06:44:16;101029.81;;;23.75;55.89
692;BME280;70475;50.084;8.576;2023-07-09T06:46:44;101038.59;;;23.87;55.77
692;BME280;70475;50.084;8.576;2023-07-09T06:49:13;101041.16;;;23.99;54.91
692;BME280;70475;50.084;8.576;2023-07-09T06:51:40;101042.25;;;24.03;54.94
692;BME280;70475;50.084;8.576;2023-07-09T06:54:09;101042.06;;;24.14;55.38
692;BME280;70475;50.084;8.576;2023-07-09T06:56:36;101036.44;;;24.31;54.02
692;BME280;70475;50.084;8.576;2023-07-09T06:59:17;101039.97;;;24.27;58.40
692;BME280;70475;50.084;8.576;2023-07-09T07:01:51;101035.88;;;24.24;56.15
692;BME280;70475;50.084;8.576;2023-07-09T07:04:19;101026.91;;;24.29;55.98
692;BME280;70475;50.084;8.576;2023-07-09T07:06:46;101037.31;;;24.42;54.29
692;BME280;70475;50.084;8.576;2023-07-09T07:09:16;101036.38;;;24.68;54.23
692;BME280;70475;50.084;8.576;2023-07-09T07:11:44;101037.50;;;24.77;53.20
692;BME280;70475;50.084;8.576;2023-07-09T07:14:13;101047.84;;;24.80;55.85
692;BME280;70475;50.084;8.576;2023-07-09T07:16:41;101043.00;;;24.87;55.21
692;BME280;70475;50.084;8.576;2023-07-09T07:19:08;101035.41;;;25.04;54.22
692;BME280;70475;50.084;8.576;2023-07-09T07:21:36;101029.38;;;25.02;55.76
692;BME280;70475;50.084;8.576;2023-07-09T07:24:04;101040.34;;;25.12;55.65
692;BME280;70475;50.084;8.576;2023-07-09T07:26:32;101036.53;;;25.23;55.57
692;BME280;70475;50.084;8.576;2023-07-09T07:29:00;101032.22;;;25.32;54.01
692;BME280;70475;50.084;8.576;2023-07-09T07:31:28;101035.78;;;25.42;54.80
692;BME280;70475;50.084;8.576;2023-07-09T07:33:56;101036.59;;;25.48;54.86
692;BME280;70475;50.084;8.576;2023-07-09T07:36:24;101030.06;;;25.59;53.39
692;BME280;70475;50.084;8.576;2023-07-09T07:38:57;101029.50;;;25.72;52.48
692;BME280;70475;50.084;8.576;2023-07-09T07:41:24;101028.66;;;25.86;50.81
692;BME280;70475;50.084;8.576;2023-07-09T07:43:52;101023.47;;;25.95;51.88
692;BME280;70475;50.084;8.576;2023-07-09T07:46:20;101023.19;;;26.06;51.11
692;BME280;70475;50.084;8.576;2023-07-09T07:48:49;101021.25;;;26.17;51.32
692;BME280;70475;50.084;8.576;2023-07-09T07:51:16;101023.94;;;26.32;50.71
692;BME280;70475;50.084;8.576;2023-07-09T07:53:44;101018.94;;;26.49;49.81
692;BME280;70475;50.084;8.576;2023-07-09T07:56:11;101017.00;;;26.60;50.90
692;BME280;70475;50.084;8.576;2023-07-09T07:58:39;101009.09;;;26.68;51.71
692;BME280;70475;50.084;8.576;2023-07-09T08:01:06;101013.88;;;26.86;49.63
692;BME280;70475;50.084;8.576;2023-07-09T08:03:34;101015.66;;;27.11;47.75
692;BME280;70475;50.084;8.576;2023-07-09T08:06:03;101012.97;;;27.06;46.68
692;BME280;70475;50.084;8.576;2023-07-09T08:08:31;101004.72;;;27.11;46.59
692;BME280;70475;50.084;8.576;2023-07-09T08:11:00;101003.59;;;27.17;46.30
692;BME280;70475;50.084;8.576;2023-07-09T08:13:31;101010.66;;;27.28;47.01
692;BME280;70475;50.084;8.576;2023-07-09T08:16:00;101006.41;;;27.45;46.53
692;BME280;70475;50.084;8.576;2023-07-09T08:18:28;101015.06;;;27.57;46.25
692;BME280;70475;50.084;8.576;2023-07-09T08:20:56;101016.94;;;27.62;45.60
692;BME280;70475;50.084;8.576;2023-07-09T08:23:25;101010.31;;;27.68;44.46
692;BME280;70475;50.084;8.576;2023-07-09T08:25:53;101010.50;;;27.76;46.09
692;BME280;70475;50.084;8.576;2023-07-09T08:28:20;101011.03;;;27.78;44.07
692;BME280;70475;50.084;8.576;2023-07-09T08:30:50;101013.72;;;27.88;44.06
692;BME280;70475;50.084;8.576;2023-07-09T08:33:18;101004.34;;;27.94;43.19
692;BME280;70475;50.084;8.576;2023-07-09T08:35:48;100997.91;;;28.04;45.06
692;BME280;70475;50.084;8.576;2023-07-09T08:38:16;101001.66;;;28.13;42.62
692;BME280;70475;50.084;8.576;2023-07-09T08:40:53;101001.78;;;28.27;43.45
692;BME280;70475;50.084;8.576;2023-07-09T08:43:30;100999.16;;;28.40;44.79
692;BME280;70475;50.084;8.576;2023-07-09T08:46:03;100993.81;;;28.54;43.16
692;BME280;70475;50.084;8.576;2023-07-09T08:48:36;100992.56;;;28.65;42.33
692;BME280;70475;50.084;8.576;2023-07-09T08:51:12;100993.25;;;28.75;43.66
692;BME280;70475;50.084;8.576;2023-07-09T08:53:45;100993.03;;;28.90;42.31
692;BME280;70475;50.084;8.576;2023-07-09T08:56:17;100989.16;;;28.91;43.59
692;BME280;70475;50.084;8.576;2023-07-09T08:58:45;100987.78;;;28.94;41.80
692;BME280;70475;50.084;8.576;2023-07-09T09:01:18;100985.53;;;28.96;41.42
692;BME280;70475;50.084;8.576;2023-07-09T09:03:49;100980.78;;;29.01;41.18
692;BME280;70475;50.084;8.576;2023-07-09T09:06:20;100991.06;;;29.14;42.74
692;BME280;70475;50.084;8.576;2023-07-09T09:09:01;100985.19;;;29.21;41.09
692;BME280;70475;50.084;8.576;2023-07-09T09:11:41;100986.97;;;29.30;40.44
692;BME280;70475;50.084;8.576;2023-07-09T09:14:19;100990.25;;;29.46;41.75
692;BME280;70475;50.084;8.576;2023-07-09T09:16:51;100988.75;;;29.53;41.39
692;BME280;70475;50.084;8.576;2023-07-09T09:19:22;100987.22;;;29.66;41.88
692;BME280;70475;50.084;8.576;2023-07-09T09:21:56;100987.63;;;29.73;41.70
692;BME280;70475;50.084;8.576;2023-07-09T09:24:28;100983.38;;;29.80;41.17
692;BME280;70475;50.084;8.576;2023-07-09T09:26:59;100979.22;;;29.97;39.45
692;BME280;70475;50.084;8.576;2023-07-09T09:29:27;100977.88;;;30.08;41.27
692;BME280;70475;50.084;8.576;2023-07-09T09:31:56;100981.81;;;30.20;40.14
692;BME280;70475;50.084;8.576;2023-07-09T09:34:27;100981.72;;;30.25;39.13
692;BME280;70475;50.084;8.576;2023-07-09T09:36:56;100980.47;;;30.31;40.64
692;BME280;70475;50.084;8.576;2023-07-09T09:39:24;100968.75;;;30.39;40.45
692;BME280;70475;50.084;8.576;2023-07-09T09:41:54;100970.78;;;30.47;39.00
692;BME280;70475;50.084;8.576;2023-07-09T09:44:26;100970.66;;;30.52;40.22
692;BME280;70475;50.084;8.576;2023-07-09T09:46:56;100976.25;;;30.61;39.77
692;BME280;70475;50.084;8.576;2023-07-09T09:49:26;100971.66;;;30.83;38.96
692;BME280;70475;50.084;8.576;2023-07-09T09:51:54;100978.28;;;30.82;38.70
692;BME280;70475;50.084;8.576;2023-07-09T09:54:26;100980.53;;;30.80;38.79
692;BME280;70475;50.084;8.576;2023-07-09T09:56:54;100979.56;;;30.98;39.12
692;BME280;70475;50.084;8.576;2023-07-09T09:59:30;100983.69;;;31.09;38.58
692;BME280;70475;50.084;8.576;2023-07-09T10:02:14;100980.00;;;31.14;39.54
692;BME280;70475;50.084;8.576;2023-07-09T10:04:43;100980.56;;;31.24;37.94
692;BME280;70475;50.084;8.576;2023-07-09T10:07:17;100979.78;;;31.24;38.24
692;BME280;70475;50.084;8.576;2023-07-09T10:09:50;100971.09;;;31.30;38.24
692;BME280;70475;50.084;8.576;2023-07-09T10:12:32;100966.97;;;31.41;37.36
692;BME280;70475;50.084;8.576;2023-07-09T10:15:13;100971.22;;;31.47;38.38
692;BME280;70475;50.084;8.576;2023-07-09T10:17:53;100952.66;;;31.61;38.35
692;BME280;70475;50.084;8.576;2023-07-09T10:20:24;100953.66;;;31.65;36.91
692;BME280;70475;50.084;8.576;2023-07-09T10:22:58;100954.94;;;31.82;36.47
692;BME280;70475;50.084;8.576;2023-07-09T10:25:35;100955.28;;;31.89;36.02
692;BME280;70475;50.084;8.576;2023-07-09T10:28:26;100950.09;;;31.96;35.82
692;BME280;70475;50.084;8.576;2023-07-09T10:31:07;100952.22;;;31.99;36.24
692;BME280;70475;50.084;8.576;2023-07-09T10:33:46;100943.66;;;32.09;36.93
692;BME280;70475;50.084;8.576;2023-07-09T10:36:26;100944.63;;;32.13;35.71
692;BME280;70475;50.084;8.576;2023-07-09T10:39:00;100938.00;;;32.14;35.68
692;BME280;70475;50.084;8.576;2023-07-09T10:41:31;100928.25;;;32.08;35.16
692;BME280;70475;50.084;8.576;2023-07-09T10:44:02;100923.09;;;32.15;35.98
692;BME280;70475;50.084;8.576;2023-07-09T10:46:39;100924.88;;;32.19;35.11
692;BME280;70475;50.084;8.576;2023-07-09T10:49:11;100918.09;;;32.25;34.94
692;BME280;70475;50.084;8.576;2023-07-09T10:51:45;100913.56;;;32.29;34.90
692;BME280;70475;50.084;8.576;2023-07-09T10:54:23;100927.22;;;32.34;34.61
692;BME280;70475;50.084;8.576;2023-07-09T10:56:59;100924.31;;;32.39;33.88
692;BME280;70475;50.084;8.576;2023-07-09T10:59:32;100911.19;;;32.45;33.99
692;BME280;70475;50.084;8.576;2023-07-09T11:02:12;100913.16;;;32.70;34.54
692;BME280;70475;50.084;8.576;2023-07-09T11:04:44;100912.34;;;32.86;33.65
692;BME280;70475;50.084;8.576;2023-07-09T11:07:17;100910.41;;;32.87;33.18
692;BME280;70475;50.084;8.576;2023-07-09T11:09:48;100904.56;;;32.88;33.09
692;BME280;70475;50.084;8.576;2023-07-09T11:12:29;100904.56;;;32.97;33.95
692;BME280;70475;50.084;8.576;2023-07-09T11:15:02;100907.66;;;33.12;33.54
692;BME280;70475;50.084;8.576;2023-07-09T11:17:33;100903.59;;;33.01;32.21
692;BME280;70475;50.084;8.576;2023-07-09T11:20:07;100910.88;;;33.06;33.01
692;BME280;70475;50.084;8.576;2023-07-09T11:22:51;100901.78;;;33.14;33.07
692;BME280;70475;50.084;8.576;2023-07-09T11:25:28;100899.66;;;33.19;32.45
692;BME280;70475;50.084;8.576;2023-07-09T11:28:03;100895.56;;;33.34;31.76
692;BME280;70475;50.084;8.576;2023-07-09T11:30:31;100891.19;;;33.33;31.80
692;BME280;70475;50.084;8.576;2023-07-09T11:33:02;100886.16;;;33.35;30.83
692;BME280;70475;50.084;8.576;2023-07-09T11:35:51;100880.63;;;33.43;30.10
692;BME280;70475;50.084;8.576;2023-07-09T11:38:22;100876.84;;;33.57;31.70
692;BME280;70475;50.084;8.576;2023-07-09T11:40:51;100877.56;;;33.74;31.71
692;BME280;70475;50.084;8.576;2023-07-09T11:43:32;100877.72;;;33.78;30.42
692;BME280;70475;50.084;8.576;2023-07-09T11:46:07;100878.53;;;33.78;30.45
692;BME280;70475;50.084;8.576;2023-07-09T11:48:40;100883.53;;;33.93;30.27
692;BME280;70475;50.084;8.576;2023-07-09T11:51:13;100877.34;;;33.96;29.05
692;BME280;70475;50.084;8.576;2023-07-09T11:53:45;100877.50;;;33.91;29.35
692;BME280;70475;50.084;8.576;2023-07-09T11:56:14;100865.94;;;33.98;30.32
692;BME280;70475;50.084;8.576;2023-07-09T11:58:48;100858.41;;;34.07;29.64
692;BME280;70475;50.084;8.576;2023-07-09T12:01:19;100858.84;;;34.17;28.79
692;BME280;70475;50.084;8.576;2023-07-09T12:03:50;100868.00;;;34.30;29.80
692;BME280;70475;50.084;8.576;2023-07-09T12:06:21;100864.56;;;34.33;29.91
692;BME280;70475;50.084;8.576;2023-07-09T12:08:51;100857.72;;;34.39;27.64
692;BME280;70475;50.084;8.576;2023-07-09T12:11:21;100858.44;;;34.27;29.08
692;BME280;70475;50.084;8.576;2023-07-09T12:13:50;100859.31;;;34.40;29.44
692;BME280;70475;50.084;8.576;2023-07-09T12:16:23;100853.88;;;34.52;29.43
692;BME280;70475;50.084;8.576;2023-07-09T12:18:52;100847.78;;;34.58;28.65
692;BME280;70475;50.084;8.576;2023-07-09T12:21:20;100841.31;;;34.54;27.85
692;BME280;70475;50.084;8.576;2023-07-09T12:23:49;100838.56;;;34.54;27.54
692;BME280;70475;50.084;8.576;2023-07-09T12:26:18;100837.66;;;34.62;29.65
692;BME280;70475;50.084;8.576;2023-07-09T12:28:50;100822.13;;;34.70;27.87
692;BME280;70475;50.084;8.576;2023-07-09T12:31:25;100832.91;;;34.83;27.47
692;BME280;70475;50.084;8.576;2023-07-09T12:33:56;100824.94;;;34.82;27.36
692;BME280;70475;50.084;8.576;2023-07-09T12:36:25;100811.72;;;34.87;26.22
692;BME280;70475;50.084;8.576;2023-07-09T12:38:55;100809.53;;;34.93;26.65
692;BME280;70475;50.084;8.576;2023-07-09T12:41:26;100806.84;;;34.84;27.42
692;BME280;70475;50.084;8.576;2023-07-09T12:43:55;100798.38;;;35.01;26.41
692;BME280;70475;50.084;8.576;2023-07-09T12:46:23;100793.06;;;34.96;25.91
692;BME280;70475;50.084;8.576;2023-07-09T12:48:53;100789.13;;;34.97;26.73
692;BME280;70475;50.084;8.576;2023-07-09T12:51:23;100781.75;;;34.89;26.84
692;BME280;70475;50.084;8.576;2023-07-09T12:54:00;100783.72;;;35.01;28.31
692;BME280;70475;50.084;8.576;2023-07-09T12:56:28;100775.53;;;35.04;27.57
692;BME280;70475;50.084;8.576;2023-07-09T12:58:57;100769.75;;;35.09;27.01
692;BME280;70475;50.084;8.576;2023-07-09T13:01:24;100764.69;;;35.11;26.03
692;BME280;70475;50.084;8.576;2023-07-09T13:03:55;100772.41;;;35.18;27.32
692;BME280;70475;50.084;8.576;2023-07-09T13:06:28;100770.97;;;35.32;27.91
692;BME280;70475;50.084;8.576;2023-07-09T13:08:58;100757.53;;;35.22;28.01
692;BME280;70475;50.084;8.576;2023-07-09T13:11:33;100754.66;;;35.19;27.80
692;BME280;70475;50.084;8.576;2023-07-09T13:14:03;100749.69;;;35.12;26.42
692;BME280;70475;50.084;8.576;2023-07-09T13:16:38;100755.09;;;34.97;27.06
692;BME280;70475;50.084;8.576;2023-07-09T13:19:09;100755.91;;;34.97;27.05
692;BME280;70475;50.084;8.576;2023-07-09T13:21:38;100746.13;;;35.12;28.56
692;BME280;70475;50.084;8.576;2023-07-09T13:24:12;100744.38;;;35.31;26.88
692;BME280;70475;50.084;8.576;2023-07-09T13:26:40;100743.03;;;35.38;27.00
692;BME280;70475;50.084;8.576;2023-07-09T13:29:12;100742.31;;;35.28;27.61